createdAt,value
2023-03-01T00:03:52.764Z,59.77
2023-03-01T00:09:15.017Z,60.14
2023-03-01T00:14:36.807Z,60.23
2023-03-01T00:19:57.960Z,60.18
2023-03-01T00:25:19.019Z,60.28
2023-03-01T00:30:39.638Z,60.44
2023-03-01T00:36:01.185Z,59.93
2023-03-01T00:41:27.802Z,59.80
2023-03-01T00:46:48.571Z,59.98
2023-03-01T00:52:09.395Z,60.10
2023-03-01T00:57:30.284Z,60.46
2023-03-01T01:02:51.061Z,60.27
2023-03-01T01:08:12.173Z,59.72
2023-03-01T01:13:33.109Z,60.02
2023-03-01T01:18:54.792Z,59.85
2023-03-01T01:24:16.634Z,59.89
2023-03-01T01:29:38.802Z,60.07
2023-03-01T01:34:59.564Z,59.92
2023-03-01T01:40:20.833Z,59.93
2023-03-01T01:45:42.518Z,60.12
2023-03-01T01:51:04.181Z,60.72
2023-03-01T01:56:27.752Z,60.22
2023-03-01T02:01:48.657Z,60.24
2023-03-01T02:07:17.444Z,59.92
2023-03-01T02:12:40.611Z,60.52
2023-03-01T02:18:02.784Z,60.26
2023-03-01T02:23:23.940Z,59.29
2023-03-01T02:28:46.135Z,59.44
2023-03-01T02:34:08.245Z,59.62
2023-03-01T02:39:34.341Z,60.03
2023-03-01T02:44:55.346Z,59.60
2023-03-01T02:50:56.744Z,59.78
2023-03-01T02:56:17.880Z,59.67
2023-03-01T03:01:39.539Z,59.59
2023-03-01T03:07:02.314Z,59.76
2023-03-01T03:12:23.199Z,60.02
2023-03-01T03:17:45.377Z,59.65
2023-03-01T03:23:07.562Z,59.70
2023-03-01T03:28:28.582Z,59.03
2023-03-01T03:33:49.534Z,59.45
2023-03-01T03:39:10.511Z,59.18
2023-03-01T03:44:31.124Z,59.32
2023-03-01T03:49:51.916Z,59.18
2023-03-01T03:55:13.915Z,60.14
2023-03-01T04:00:40.772Z,60.10
2023-03-01T04:06:02.406Z,59.09
2023-03-01T04:11:28.937Z,59.56
2023-03-01T04:16:50.877Z,60.05
2023-03-01T04:22:12.299Z,60.20
2023-03-01T04:27:37.051Z,59.53
2023-03-01T04:32:58.778Z,60.15
2023-03-01T04:38:20.708Z,60.22
2023-03-01T04:43:41.650Z,59.96
2023-03-01T04:49:03.709Z,59.65
2023-03-01T04:54:24.984Z,59.70
2023-03-01T04:59:46.138Z,60.30
2023-03-01T05:05:07.374Z,60.64
2023-03-01T05:10:33.100Z,60.03
2023-03-01T05:15:59.313Z,59.94
2023-03-01T05:21:20.130Z,59.67
2023-03-01T05:26:42.536Z,60.00
2023-03-01T05:32:04.335Z,60.61
2023-03-01T05:37:24.985Z,59.83
2023-03-01T05:42:47.816Z,60.28
2023-03-01T05:48:09.687Z,59.87
2023-03-01T05:53:30.957Z,59.98
2023-03-01T05:58:52.024Z,60.59
2023-03-01T06:04:12.805Z,60.01
2023-03-01T06:09:33.775Z,60.44
2023-03-01T06:14:54.866Z,59.68
2023-03-01T06:20:22.127Z,60.09
2023-03-01T06:25:42.902Z,60.35
2023-03-01T06:31:03.847Z,60.74
2023-03-01T06:36:24.955Z,61.36
2023-03-01T06:41:46.246Z,61.57
2023-03-01T06:47:07.249Z,61.44
2023-03-01T06:52:28.018Z,61.13
2023-03-01T06:57:48.849Z,61.12
2023-03-01T07:03:09.720Z,60.79
2023-03-01T07:08:30.814Z,60.97
2023-03-01T07:13:51.569Z,61.38
2023-03-01T07:19:12.426Z,61.59
2023-03-01T07:24:33.193Z,61.82
2023-03-01T07:29:53.771Z,60.86
2023-03-01T07:35:15.920Z,60.98
2023-03-01T07:40:36.814Z,61.59
2023-03-01T07:46:02.013Z,60.75
2023-03-01T07:51:22.976Z,60.75
2023-03-01T07:56:43.942Z,61.15
2023-03-01T08:02:04.746Z,61.29
2023-03-01T08:07:25.789Z,61.14
2023-03-01T08:12:46.821Z,62.34
2023-03-01T08:18:07.658Z,61.50
2023-03-01T08:23:28.267Z,61.64
2023-03-01T08:28:51.209Z,61.79
2023-03-01T08:34:14.959Z,61.53
2023-03-01T08:39:35.961Z,61.66
2023-03-01T08:44:57.840Z,62.11
2023-03-01T08:50:18.580Z,61.82
2023-03-01T08:55:39.462Z,61.82
2023-03-01T09:01:00.377Z,61.28
2023-03-01T09:06:21.879Z,61.30
2023-03-01T09:11:44.690Z,61.10
2023-03-01T09:17:06.074Z,60.35
2023-03-01T09:22:26.987Z,61.02
2023-03-01T09:27:47.652Z,60.69
2023-03-01T09:33:08.372Z,60.72
2023-03-01T09:38:29.809Z,60.43
2023-03-01T09:44:37.427Z,59.64
2023-03-01T09:50:15.027Z,59.85
2023-03-01T09:55:57.757Z,59.37
2023-03-01T10:01:54.477Z,59.23
2023-03-01T10:07:39.360Z,59.89
2023-03-01T10:13:05.823Z,59.52
2023-03-01T10:18:30.793Z,59.60
2023-03-01T10:23:54.243Z,59.09
2023-03-01T10:29:16.182Z,59.47
2023-03-01T10:34:37.678Z,59.03
2023-03-01T10:40:12.063Z,58.86
2023-03-01T10:45:35.800Z,58.55
2023-03-01T10:50:59.782Z,58.98
2023-03-01T10:56:21.021Z,59.19
2023-03-01T11:01:42.103Z,58.23
2023-03-01T11:07:03.746Z,58.41
2023-03-01T11:12:25.540Z,58.72
2023-03-01T11:17:54.530Z,58.30
2023-03-01T11:23:19.666Z,58.42
2023-03-01T11:28:43.781Z,58.88
2023-03-01T11:34:14.995Z,58.73
2023-03-01T11:39:43.474Z,58.04
2023-03-01T11:45:10.864Z,57.85
2023-03-01T11:50:44.943Z,58.06
2023-03-01T11:56:24.292Z,58.08
2023-03-01T12:02:14.251Z,58.68
2023-03-01T12:08:05.015Z,58.41
2023-03-01T12:13:47.710Z,58.20
2023-03-01T12:19:28.604Z,58.35
2023-03-01T12:25:04.833Z,58.42
2023-03-01T12:30:56.825Z,58.59
2023-03-01T12:36:42.120Z,58.02
2023-03-01T12:42:17.115Z,58.08
2023-03-01T12:47:54.869Z,58.44
2023-03-01T12:53:25.099Z,58.06
2023-03-01T12:59:12.495Z,58.31
2023-03-01T13:05:15.457Z,57.63
2023-03-01T13:10:59.679Z,58.34
2023-03-01T13:16:40.137Z,58.67
2023-03-01T13:22:01.388Z,58.23
2023-03-01T13:27:30.324Z,58.16
2023-03-01T13:32:51.207Z,58.07
2023-03-01T13:38:45.648Z,58.01
2023-03-01T13:44:39.968Z,57.92
2023-03-01T13:50:03.759Z,58.05
2023-03-01T13:55:39.694Z,57.70
2023-03-01T14:01:21.318Z,57.49
2023-03-01T14:06:42.506Z,57.52
2023-03-01T14:12:28.487Z,57.06
2023-03-01T14:17:58.533Z,57.52
2023-03-01T14:23:23.107Z,57.54
2023-03-01T14:28:44.004Z,56.55
2023-03-01T14:34:05.932Z,57.28
2023-03-01T14:39:27.460Z,57.17
2023-03-01T14:44:51.893Z,57.00
2023-03-01T14:50:29.778Z,56.77
2023-03-01T14:55:54.465Z,57.09
2023-03-01T15:01:18.274Z,56.77
2023-03-01T15:06:39.624Z,56.74
2023-03-01T15:12:00.325Z,56.89
2023-03-01T15:17:39.837Z,56.91
2023-03-01T15:23:02.121Z,56.79
2023-03-01T15:28:33.219Z,57.03
2023-03-01T15:34:22.098Z,56.78
2023-03-01T15:39:51.790Z,57.19
2023-03-01T15:45:17.023Z,56.81
2023-03-01T15:50:41.090Z,57.21
2023-03-01T15:56:01.924Z,57.12
2023-03-01T16:01:22.689Z,57.45
2023-03-01T16:06:43.665Z,57.04
2023-03-01T16:12:04.653Z,56.70
2023-03-01T16:17:26.897Z,57.18
2023-03-01T16:22:47.986Z,57.04
2023-03-01T16:28:12.085Z,57.48
2023-03-01T16:33:35.013Z,57.33
2023-03-01T16:38:59.666Z,58.07
2023-03-01T16:44:20.719Z,57.84
2023-03-01T16:49:41.466Z,57.08
2023-03-01T16:55:04.881Z,57.30
2023-03-01T17:00:25.672Z,57.59
2023-03-01T17:05:47.063Z,57.25
2023-03-01T17:11:17.286Z,57.82
2023-03-01T17:16:38.321Z,57.31
2023-03-01T17:21:58.917Z,57.31
2023-03-01T17:27:20.044Z,57.79
2023-03-01T17:32:41.759Z,57.69
2023-03-01T17:38:03.051Z,57.11
2023-03-01T17:43:24.324Z,57.27
2023-03-01T17:48:45.076Z,57.81
2023-03-01T17:54:06.180Z,57.35
2023-03-01T17:59:32.952Z,57.81
2023-03-01T18:04:58.041Z,57.68
2023-03-01T18:10:20.158Z,57.81
2023-03-01T18:15:40.958Z,57.53
2023-03-01T18:21:02.553Z,57.76
2023-03-01T18:26:25.147Z,57.06
2023-03-01T18:31:46.608Z,57.70
2023-03-01T18:37:10.089Z,57.94
2023-03-01T18:42:31.463Z,57.86
2023-03-01T18:47:52.322Z,57.51
2023-03-01T18:53:13.083Z,57.74
2023-03-01T18:58:34.027Z,57.70
2023-03-01T19:03:56.592Z,58.19
2023-03-01T19:09:18.194Z,57.83
2023-03-01T19:14:39.170Z,57.92
2023-03-01T19:20:00.101Z,58.17
2023-03-01T19:25:21.268Z,58.36
2023-03-01T19:30:42.019Z,57.73
2023-03-01T19:36:03.770Z,57.71
2023-03-01T19:41:24.602Z,57.99
2023-03-01T19:46:45.698Z,57.40
2023-03-01T19:52:06.451Z,58.16
2023-03-01T19:57:27.027Z,58.50
2023-03-01T20:02:49.208Z,58.03
2023-03-01T20:08:09.772Z,58.39
2023-03-01T20:13:30.662Z,58.08
2023-03-01T20:18:51.540Z,58.02
2023-03-01T20:24:12.615Z,58.18
2023-03-01T20:29:33.219Z,58.39
2023-03-01T20:34:56.866Z,58.50
2023-03-01T20:40:19.496Z,58.09
2023-03-01T20:45:40.175Z,58.39
2023-03-01T20:51:05.305Z,58.81
2023-03-01T20:56:27.474Z,58.83
2023-03-01T21:01:57.814Z,58.26
2023-03-01T21:07:18.611Z,58.31
2023-03-01T21:12:39.330Z,58.78
2023-03-01T21:18:00.409Z,58.93
2023-03-01T21:23:21.301Z,58.92
2023-03-01T21:28:43.255Z,59.24
2023-03-01T21:34:06.648Z,59.41
2023-03-01T21:39:29.038Z,59.07
2023-03-01T21:44:50.068Z,58.98
2023-03-01T21:50:11.642Z,59.37
2023-03-01T21:55:34.199Z,59.33
2023-03-01T22:01:06.700Z,59.34
2023-03-01T22:06:34.284Z,59.33
2023-03-01T22:12:02.604Z,59.66
2023-03-01T22:17:23.835Z,59.51
2023-03-01T22:22:44.510Z,59.38
2023-03-01T22:28:05.188Z,59.06
2023-03-01T22:33:26.020Z,59.05
2023-03-01T22:38:47.103Z,59.11
2023-03-01T22:44:08.150Z,59.00
2023-03-01T22:49:28.742Z,59.35
2023-03-01T22:54:49.604Z,58.63
2023-03-01T23:00:13.352Z,59.16
2023-03-01T23:05:34.314Z,59.22
2023-03-01T23:10:55.280Z,59.38
2023-03-01T23:16:17.220Z,59.92
2023-03-01T23:21:38.106Z,59.01
2023-03-01T23:27:03.003Z,59.36
2023-03-01T23:32:24.160Z,59.04
2023-03-01T23:37:45.634Z,59.49
2023-03-01T23:43:06.503Z,58.74
2023-03-01T23:48:27.138Z,59.21
2023-03-01T23:53:57.611Z,58.95
2023-03-01T23:59:21.926Z,59.91
